createdAt,value
2019-01-26T00:02:25.529Z,-0.01
2019-01-26T00:04:57.225Z,-0.05
2019-01-26T00:07:29.203Z,-0.07
2019-01-26T00:10:00.941Z,-0.10
2019-01-26T00:12:32.618Z,-0.11
2019-01-26T00:15:10.372Z,-0.13
2019-01-26T00:17:42.069Z,-0.16
2019-01-26T00:20:13.750Z,-0.15
2019-01-26T00:22:45.457Z,-0.15
2019-01-26T00:25:17.141Z,-0.14
2019-01-26T00:27:48.843Z,-0.16
2019-01-26T00:30:20.549Z,-0.17
2019-01-26T00:32:52.238Z,-0.16
2019-01-26T00:35:23.942Z,-0.12
2019-01-26T00:37:55.624Z,-0.12
2019-01-26T00:40:27.370Z,-0.12
2019-01-26T00:42:59.046Z,-0.16
2019-01-26T00:45:30.757Z,-0.17
2019-01-26T00:48:02.457Z,-0.17
2019-01-26T00:50:34.147Z,-0.18
2019-01-26T00:53:05.846Z,-0.19
2019-01-26T00:55:37.823Z,-0.19
2019-01-26T00:58:09.895Z,-0.18
2019-01-26T01:00:41.584Z,-0.22
2019-01-26T01:03:13.623Z,-0.22
2019-01-26T01:05:45.318Z,-0.21
2019-01-26T01:08:17.117Z,-0.18
2019-01-26T01:10:48.826Z,-0.18
2019-01-26T01:13:20.513Z,-0.19
2019-01-26T01:15:52.224Z,-0.20
2019-01-26T01:18:23.898Z,-0.18
2019-01-26T01:20:55.675Z,-0.16
2019-01-26T01:23:27.396Z,-0.15
2019-01-26T01:25:59.078Z,-0.13
2019-01-26T01:28:30.775Z,-0.12
2019-01-26T01:31:02.648Z,-0.10
2019-01-26T01:33:34.410Z,-0.09
2019-01-26T01:36:06.167Z,-0.06
2019-01-26T01:38:37.951Z,-0.04
2019-01-26T01:41:09.648Z,-0.03
2019-01-26T01:43:41.443Z,-0.01
2019-01-26T01:46:13.127Z,-0.01
2019-01-26T01:48:44.816Z,0.00
2019-01-26T01:51:16.526Z,0.03
2019-01-26T01:53:48.479Z,0.04
2019-01-26T01:56:20.455Z,0.07
2019-01-26T01:58:52.144Z,0.08
2019-01-26T02:01:23.820Z,0.09
2019-01-26T02:03:55.573Z,0.09
2019-01-26T02:06:27.257Z,0.10
2019-01-26T02:08:58.943Z,0.11
2019-01-26T02:11:30.615Z,0.12
2019-01-26T02:14:02.303Z,0.15
2019-01-26T02:16:33.993Z,0.17
2019-01-26T02:19:05.744Z,0.20
2019-01-26T02:21:37.437Z,0.21
2019-01-26T02:24:09.481Z,0.23
2019-01-26T02:26:41.165Z,0.22
2019-01-26T02:29:12.856Z,0.22
2019-01-26T02:31:44.869Z,0.22
2019-01-26T02:34:16.565Z,0.23
2019-01-26T02:36:48.315Z,0.25
2019-01-26T02:39:20.003Z,0.29
2019-01-26T02:41:51.674Z,0.33
2019-01-26T02:44:23.359Z,0.39
2019-01-26T02:46:58.026Z,0.43
2019-01-26T02:49:28.466Z,0.46
2019-01-26T02:52:00.103Z,0.47
2019-01-26T02:54:31.799Z,0.48
2019-01-26T02:57:03.504Z,0.47
2019-01-26T02:59:35.257Z,0.47
2019-01-26T03:02:07.298Z,0.45
2019-01-26T03:04:39.152Z,0.45
2019-01-26T03:07:10.855Z,0.47
2019-01-26T03:09:42.538Z,0.48
2019-01-26T03:12:14.241Z,0.47
2019-01-26T03:14:45.928Z,0.49
2019-01-26T03:17:17.692Z,0.49
2019-01-26T03:19:49.713Z,0.50
2019-01-26T03:22:21.403Z,0.52
2019-01-26T03:24:53.442Z,0.49
2019-01-26T03:27:25.112Z,0.50
2019-01-26T03:29:56.812Z,0.51
2019-01-26T03:32:28.823Z,0.50
2019-01-26T03:35:00.505Z,0.51
2019-01-26T03:37:32.198Z,0.53
2019-01-26T03:40:05.976Z,0.56
2019-01-26T03:42:37.663Z,0.57
2019-01-26T03:45:12.555Z,0.57
2019-01-26T03:47:46.010Z,0.59
2019-01-26T03:50:17.695Z,0.61
2019-01-26T03:52:49.955Z,0.63
2019-01-26T03:55:22.629Z,0.65
2019-01-26T03:57:54.333Z,0.63
2019-01-26T04:00:28.038Z,0.63
2019-01-26T04:02:59.736Z,0.65
2019-01-26T04:05:31.497Z,0.68
2019-01-26T04:08:04.151Z,0.71
2019-01-26T04:10:36.160Z,0.71
2019-01-26T04:13:07.869Z,0.73
2019-01-26T04:15:39.550Z,0.73
2019-01-26T04:18:11.535Z,0.74
2019-01-26T04:20:43.307Z,0.77
2019-01-26T04:23:14.986Z,0.78
2019-01-26T04:25:46.676Z,0.78
2019-01-26T04:28:18.781Z,0.78
2019-01-26T04:30:50.465Z,0.80
2019-01-26T04:33:22.164Z,0.80
2019-01-26T04:35:53.835Z,0.81
2019-01-26T04:38:25.534Z,0.84
2019-01-26T04:40:57.234Z,0.84
2019-01-26T04:43:28.929Z,0.81
2019-01-26T04:46:00.992Z,0.80
2019-01-26T04:48:32.671Z,0.79
2019-01-26T04:51:04.451Z,0.82
2019-01-26T04:53:36.407Z,0.83
2019-01-26T04:56:08.170Z,0.84
2019-01-26T04:58:43.016Z,0.84
2019-01-26T05:01:14.781Z,0.84
2019-01-26T05:03:46.511Z,0.86
2019-01-26T05:06:18.523Z,0.85
2019-01-26T05:08:50.387Z,0.87
2019-01-26T05:11:22.443Z,0.86
2019-01-26T05:13:54.143Z,0.84
2019-01-26T05:16:25.825Z,0.83
2019-01-26T05:18:57.683Z,0.85
2019-01-26T05:21:29.429Z,0.88
2019-01-26T05:24:01.127Z,0.91
2019-01-26T05:26:33.169Z,0.92
2019-01-26T05:29:05.128Z,0.89
2019-01-26T05:31:37.078Z,0.87
2019-01-26T05:34:09.045Z,0.87
2019-01-26T05:36:40.894Z,0.88
2019-01-26T05:39:12.583Z,0.90
2019-01-26T05:41:44.280Z,0.89
2019-01-26T05:44:16.469Z,0.91
2019-01-26T05:46:48.519Z,0.91
2019-01-26T05:49:20.280Z,0.90
2019-01-26T05:51:52.232Z,0.89
2019-01-26T05:54:24.192Z,0.90
2019-01-26T05:56:55.872Z,0.90
2019-01-26T05:59:27.954Z,0.92
2019-01-26T06:01:59.799Z,0.95
2019-01-26T06:04:31.506Z,0.97
2019-01-26T06:07:03.190Z,0.99
2019-01-26T06:09:35.153Z,1.00
2019-01-26T06:12:06.840Z,0.98
2019-01-26T06:14:38.524Z,0.99
2019-01-26T06:17:10.211Z,1.00
2019-01-26T06:19:41.879Z,1.01
2019-01-26T06:22:13.586Z,1.03
2019-01-26T06:24:45.260Z,1.04
2019-01-26T06:27:16.955Z,1.05
2019-01-26T06:29:48.631Z,1.06
2019-01-26T06:32:20.694Z,1.06
2019-01-26T06:34:52.494Z,1.04
2019-01-26T06:37:24.287Z,1.02
2019-01-26T06:39:55.969Z,1.02
2019-01-26T06:42:27.677Z,1.02
2019-01-26T06:44:59.359Z,1.04
2019-01-26T06:47:31.065Z,1.03
2019-01-26T06:50:02.813Z,1.02
2019-01-26T06:52:35.435Z,1.03
2019-01-26T06:55:10.227Z,1.05
2019-01-26T06:57:41.905Z,1.07
2019-01-26T07:00:23.759Z,1.10
2019-01-26T07:02:56.006Z,1.11
2019-01-26T07:05:32.314Z,1.14
2019-01-26T07:08:04.360Z,1.15
2019-01-26T07:10:36.060Z,1.16
2019-01-26T07:13:07.759Z,1.19
2019-01-26T07:15:39.441Z,1.20
2019-01-26T07:18:11.122Z,1.21
2019-01-26T07:20:42.825Z,1.24
2019-01-26T07:23:14.498Z,1.25
2019-01-26T07:25:46.187Z,1.27
2019-01-26T07:28:17.871Z,1.27
2019-01-26T07:30:49.555Z,1.27
2019-01-26T07:33:21.242Z,1.31
2019-01-26T07:35:52.944Z,1.33
2019-01-26T07:38:24.622Z,1.36
2019-01-26T07:40:56.315Z,1.39
2019-01-26T07:43:27.995Z,1.40
2019-01-26T07:45:59.686Z,1.40
2019-01-26T07:48:31.680Z,1.43
2019-01-26T07:51:03.354Z,1.42
2019-01-26T07:53:35.056Z,1.42
2019-01-26T07:56:06.726Z,1.41
2019-01-26T07:58:38.422Z,1.41
2019-01-26T08:01:10.111Z,1.42
2019-01-26T08:03:41.811Z,1.44
2019-01-26T08:06:13.494Z,1.45
2019-01-26T08:08:45.211Z,1.45
2019-01-26T08:11:16.884Z,1.46
2019-01-26T08:13:48.594Z,1.49
2019-01-26T08:16:20.620Z,1.50
2019-01-26T08:18:52.321Z,1.49
2019-01-26T08:21:24.015Z,1.50
2019-01-26T08:23:55.684Z,1.51
2019-01-26T08:26:27.393Z,1.52
2019-01-26T08:28:59.073Z,1.54
2019-01-26T08:31:30.773Z,1.58
2019-01-26T08:34:02.462Z,1.60
2019-01-26T08:36:34.138Z,1.62
2019-01-26T08:39:07.954Z,1.64
2019-01-26T08:41:39.628Z,1.66
2019-01-26T08:44:11.310Z,1.68
2019-01-26T08:46:43.366Z,1.72
2019-01-26T08:49:15.046Z,1.74
2019-01-26T08:51:46.753Z,1.74
2019-01-26T08:54:18.447Z,1.74
2019-01-26T08:56:50.123Z,1.73
2019-01-26T08:59:22.160Z,1.73
2019-01-26T09:01:55.557Z,1.77
2019-01-26T09:04:27.321Z,1.81
2019-01-26T09:06:59.001Z,1.84
2019-01-26T09:09:30.686Z,1.88
2019-01-26T09:12:02.644Z,1.91
2019-01-26T09:14:34.663Z,1.94
2019-01-26T09:17:06.376Z,1.98
2019-01-26T09:19:38.380Z,2.01
2019-01-26T09:22:10.065Z,2.04
2019-01-26T09:24:41.738Z,2.05
2019-01-26T09:27:13.423Z,2.10
2019-01-26T09:29:45.097Z,2.12
2019-01-26T09:32:16.787Z,2.16
2019-01-26T09:34:48.458Z,2.23
2019-01-26T09:37:20.136Z,2.29
2019-01-26T09:39:51.820Z,2.36
2019-01-26T09:59:46.337Z,2.42
2019-01-26T10:02:18.314Z,2.46
2019-01-26T10:04:50.082Z,2.53
2019-01-26T10:07:21.863Z,2.56
2019-01-26T10:09:53.544Z,2.62
2019-01-26T10:12:25.341Z,2.65
2019-01-26T10:14:57.020Z,2.67
2019-01-26T10:17:29.080Z,2.67
2019-01-26T10:20:00.766Z,2.67
2019-01-26T10:22:32.894Z,2.69
2019-01-26T10:25:07.074Z,2.69
2019-01-26T10:27:38.829Z,2.73
2019-01-26T10:30:32.010Z,2.79
2019-01-26T10:33:03.952Z,2.83
2019-01-26T10:35:37.355Z,2.90
2019-01-26T10:38:10.068Z,2.95
2019-01-26T10:40:43.791Z,3.03
2019-01-26T10:43:17.541Z,3.09
2019-01-26T10:45:49.221Z,3.20
2019-01-26T10:48:21.034Z,3.30
2019-01-26T10:50:52.717Z,3.43
2019-01-26T10:53:24.525Z,3.51
2019-01-26T10:55:56.204Z,3.55
2019-01-26T10:58:27.947Z,3.58
2019-01-26T11:01:00.081Z,3.64
2019-01-26T11:03:31.837Z,3.73
2019-01-26T11:06:03.514Z,3.80
2019-01-26T11:08:35.190Z,3.87
2019-01-26T11:11:06.909Z,3.94
2019-01-26T11:13:38.575Z,4.00
2019-01-26T11:16:10.351Z,4.02
2019-01-26T11:18:42.088Z,4.04
2019-01-26T11:21:13.838Z,4.05
2019-01-26T11:23:45.676Z,4.05
2019-01-26T11:26:17.430Z,4.07
2019-01-26T11:28:49.097Z,4.03
2019-01-26T11:31:21.450Z,3.97
2019-01-26T11:33:53.118Z,3.90
2019-01-26T11:36:24.871Z,3.85
2019-01-26T11:38:56.538Z,3.80
2019-01-26T11:41:28.984Z,3.78
2019-01-26T11:44:00.694Z,3.77
2019-01-26T11:46:32.351Z,3.56
2019-01-26T11:49:04.501Z,3.79
2019-01-26T11:51:37.896Z,3.78
2019-01-26T11:54:09.564Z,3.77
2019-01-26T11:56:44.620Z,3.78
2019-01-26T11:59:18.034Z,3.78
2019-01-26T12:01:51.441Z,3.79
2019-01-26T12:04:25.036Z,3.79
2019-01-26T12:06:58.443Z,3.81
2019-01-26T12:09:30.107Z,3.83
2019-01-26T12:12:01.895Z,3.87
2019-01-26T12:14:33.567Z,3.88
2019-01-26T12:17:06.244Z,3.91
2019-01-26T12:19:38.348Z,3.93
2019-01-26T12:22:10.024Z,3.93
2019-01-26T12:24:41.691Z,3.92
2019-01-26T12:27:13.716Z,3.91
2019-01-26T12:29:45.560Z,3.89
2019-01-26T12:32:17.358Z,3.85
2019-01-26T12:34:49.097Z,3.86
2019-01-26T12:37:20.778Z,3.85
2019-01-26T12:39:52.455Z,3.87
2019-01-26T12:42:24.483Z,3.88
2019-01-26T12:44:56.449Z,3.89
2019-01-26T12:47:28.194Z,3.90
2019-01-26T12:49:59.872Z,3.91
2019-01-26T12:52:31.568Z,3.92
2019-01-26T12:55:03.584Z,3.94
2019-01-26T12:57:35.430Z,3.95
2019-01-26T13:00:14.515Z,3.97
2019-01-26T13:02:46.248Z,4.01
2019-01-26T13:05:17.931Z,4.04
2019-01-26T13:07:49.600Z,4.05
2019-01-26T13:10:28.912Z,4.08
2019-01-26T13:13:00.722Z,4.09
2019-01-26T13:15:32.434Z,4.12
2019-01-26T13:18:04.293Z,4.14
2019-01-26T13:20:36.134Z,4.15
2019-01-26T13:23:07.942Z,4.15
2019-01-26T13:25:40.081Z,4.14
2019-01-26T13:28:11.845Z,4.14
2019-01-26T13:30:43.526Z,4.16
2019-01-26T13:33:15.534Z,4.15
2019-01-26T13:35:47.240Z,4.16
2019-01-26T13:38:19.176Z,4.17
2019-01-26T13:40:50.854Z,4.17
2019-01-26T13:43:22.708Z,4.18
2019-01-26T13:45:57.331Z,4.18
2019-01-26T13:48:29.020Z,4.19
2019-01-26T13:51:00.694Z,4.17
2019-01-26T13:53:32.470Z,4.19
2019-01-26T13:56:04.434Z,4.20
2019-01-26T13:58:36.177Z,4.19
2019-01-26T14:01:07.860Z,4.21
2019-01-26T14:03:39.523Z,4.19
2019-01-26T14:06:11.274Z,4.20
2019-01-26T14:08:42.999Z,4.20
2019-01-26T14:11:15.019Z,4.21
2019-01-26T14:13:47.345Z,4.22
2019-01-26T14:16:19.342Z,4.22
2019-01-26T14:18:51.448Z,4.23
2019-01-26T14:21:23.306Z,4.23
2019-01-26T14:23:54.967Z,4.23
2019-01-26T14:26:26.667Z,4.24
2019-01-26T14:28:58.328Z,4.24
2019-01-26T14:31:30.194Z,4.23
2019-01-26T14:34:01.867Z,4.22
2019-01-26T14:36:33.621Z,4.23
2019-01-26T14:39:08.089Z,4.22
2019-01-26T14:41:39.845Z,4.21
2019-01-26T14:44:11.577Z,4.21
2019-01-26T14:46:44.030Z,4.22
2019-01-26T14:49:15.726Z,4.20
2019-01-26T14:51:47.387Z,4.21
2019-01-26T14:54:19.107Z,4.20
2019-01-26T14:56:50.763Z,4.19
2019-01-26T14:59:22.462Z,4.19
2019-01-26T15:01:54.198Z,4.17
2019-01-26T15:04:26.046Z,4.16
2019-01-26T15:06:57.712Z,4.16
2019-01-26T15:09:29.704Z,4.15
2019-01-26T15:12:01.441Z,4.15
2019-01-26T15:14:34.090Z,4.13
2019-01-26T15:17:05.928Z,4.13
2019-01-26T15:19:37.631Z,4.13
2019-01-26T15:22:09.647Z,4.13
2019-01-26T15:24:41.341Z,4.12
2019-01-26T15:27:13.006Z,4.12
2019-01-26T15:29:44.702Z,4.11
2019-01-26T15:32:16.381Z,4.10
2019-01-26T15:34:48.058Z,4.11
2019-01-26T15:37:20.592Z,4.11
2019-01-26T15:39:52.700Z,4.11
2019-01-26T15:42:24.442Z,4.12
2019-01-26T15:44:56.148Z,4.12
2019-01-26T15:47:27.822Z,4.12
2019-01-26T15:49:59.503Z,4.11
2019-01-26T15:52:31.246Z,4.13
2019-01-26T15:55:03.096Z,4.12
2019-01-26T15:57:35.093Z,4.11
2019-01-26T16:00:11.750Z,4.13
2019-01-26T16:02:43.497Z,4.12
2019-01-26T16:05:15.195Z,4.18
2019-01-26T16:07:46.865Z,4.23
2019-01-26T16:10:24.328Z,4.22
2019-01-26T16:12:58.058Z,4.22
2019-01-26T16:15:33.115Z,4.23
2019-01-26T16:18:08.287Z,4.22
2019-01-26T16:20:41.267Z,4.21
2019-01-26T16:23:12.959Z,4.19
2019-01-26T16:25:44.636Z,4.21
2019-01-26T16:28:16.403Z,4.20
2019-01-26T16:30:48.070Z,4.20
2019-01-26T16:33:19.748Z,4.19
2019-01-26T16:35:51.422Z,4.20
2019-01-26T16:38:23.170Z,4.20
2019-01-26T16:40:55.188Z,4.21
2019-01-26T16:43:26.882Z,4.20
2019-01-26T16:45:58.617Z,4.20
2019-01-26T16:48:30.308Z,4.21
2019-01-26T16:51:02.332Z,4.21
2019-01-26T16:53:34.101Z,4.20
2019-01-26T16:56:05.767Z,4.22
2019-01-26T16:58:37.524Z,4.21
2019-01-26T17:01:09.197Z,4.22
2019-01-26T17:03:41.342Z,4.21
2019-01-26T17:06:13.396Z,4.20
2019-01-26T17:08:45.072Z,4.20
2019-01-26T17:11:16.809Z,4.21
2019-01-26T17:13:48.495Z,4.21
2019-01-26T17:16:20.185Z,4.21
2019-01-26T17:18:51.871Z,4.21
2019-01-26T17:21:23.535Z,4.21
2019-01-26T17:23:55.221Z,4.20
2019-01-26T17:26:26.889Z,4.19
2019-01-26T17:28:59.037Z,4.19
2019-01-26T17:31:30.795Z,4.20
2019-01-26T17:34:03.659Z,4.18
2019-01-26T17:36:35.335Z,4.19
2019-01-26T17:39:09.225Z,4.18
2019-01-26T17:41:40.904Z,4.18
2019-01-26T17:44:12.937Z,4.18
2019-01-26T17:46:44.619Z,4.18
2019-01-26T17:49:16.296Z,4.17
2019-01-26T17:51:48.433Z,4.18
2019-01-26T17:54:20.116Z,4.16
2019-01-26T17:56:51.972Z,4.18
2019-01-26T17:59:23.908Z,4.18
2019-01-26T18:01:55.670Z,4.18
2019-01-26T18:04:27.580Z,4.18
2019-01-26T18:06:59.637Z,4.18
2019-01-26T18:09:31.592Z,4.19
2019-01-26T18:12:04.460Z,4.18
2019-01-26T18:14:36.476Z,4.17
2019-01-26T18:17:08.152Z,4.18
2019-01-26T18:19:39.838Z,4.17
2019-01-26T18:22:11.505Z,4.19
2019-01-26T18:24:44.359Z,4.17
2019-01-26T18:27:16.045Z,4.18
2019-01-26T18:29:47.710Z,4.18
2019-01-26T18:32:20.902Z,4.20
2019-01-26T18:34:52.806Z,4.19
2019-01-26T18:37:25.216Z,4.19
2019-01-26T18:39:56.971Z,4.19
2019-01-26T18:42:28.758Z,4.19
2019-01-26T18:45:00.408Z,4.21
2019-01-26T18:47:32.088Z,4.22
2019-01-26T18:50:06.532Z,4.22
2019-01-26T18:52:38.211Z,4.22
2019-01-26T18:55:09.942Z,4.21
2019-01-26T18:57:41.630Z,4.22
2019-01-26T19:00:20.542Z,4.21
2019-01-26T19:03:03.577Z,4.22
2019-01-26T19:05:38.964Z,4.21
2019-01-26T19:08:10.711Z,4.22
2019-01-26T19:10:42.414Z,4.22
2019-01-26T19:13:15.816Z,4.21
2019-01-26T19:15:47.500Z,4.22
2019-01-26T19:18:19.656Z,4.22
2019-01-26T19:20:51.328Z,4.23
2019-01-26T19:23:23.611Z,4.22
2019-01-26T19:25:56.639Z,4.22
2019-01-26T19:28:28.344Z,4.22
2019-01-26T19:30:59.999Z,4.23
2019-01-26T19:33:31.756Z,4.22
2019-01-26T19:36:03.888Z,4.23
2019-01-26T19:38:35.640Z,4.24
2019-01-26T19:41:07.327Z,4.21
2019-01-26T19:43:39.062Z,4.21
2019-01-26T19:46:11.057Z,4.21
2019-01-26T19:48:42.988Z,4.20
2019-01-26T19:51:14.675Z,4.19
2019-01-26T19:53:46.356Z,4.20
2019-01-26T19:56:18.788Z,4.20
2019-01-26T20:03:11.699Z,4.14
2019-01-26T20:05:48.034Z,4.14
2019-01-26T20:08:16.762Z,4.16
2019-01-26T20:10:48.440Z,4.17
2019-01-26T20:13:20.642Z,4.19
2019-01-26T20:15:53.149Z,4.18
2019-01-26T20:18:24.811Z,4.19
2019-01-26T20:20:56.489Z,4.20
2019-01-26T20:23:28.445Z,4.22
2019-01-26T20:26:00.119Z,4.22
2019-01-26T20:28:31.778Z,4.22
2019-01-26T20:31:03.449Z,4.23
2019-01-26T20:33:35.205Z,4.22
2019-01-26T20:36:06.868Z,4.24
2019-01-26T20:38:38.880Z,4.24
2019-01-26T20:41:10.620Z,4.25
2019-01-26T20:43:42.282Z,4.25
2019-01-26T20:46:14.312Z,4.27
2019-01-26T20:48:45.991Z,4.26
2019-01-26T20:51:17.649Z,4.29
2019-01-26T20:53:49.320Z,4.29
2019-01-26T20:56:21.054Z,4.30
2019-01-26T20:58:52.824Z,4.30
2019-01-26T21:01:24.537Z,4.30
2019-01-26T21:03:56.182Z,4.31
2019-01-26T21:06:29.342Z,4.30
2019-01-26T21:09:01.131Z,4.32
2019-01-26T21:11:32.793Z,4.30
2019-01-26T21:14:05.253Z,4.30
2019-01-26T21:16:36.910Z,4.31
2019-01-26T21:19:09.374Z,4.30
2019-01-26T21:21:41.011Z,4.29
2019-01-26T21:24:12.708Z,4.30
2019-01-26T21:26:44.646Z,4.31
2019-01-26T21:29:16.309Z,4.33
2019-01-26T21:31:47.964Z,4.33
2019-01-26T21:34:19.702Z,4.32
2019-01-26T21:36:51.436Z,4.31
2019-01-26T21:39:23.135Z,4.31
2019-01-26T21:41:56.628Z,4.33
2019-01-26T21:44:28.891Z,4.33
2019-01-26T21:47:01.160Z,4.33
2019-01-26T21:49:32.821Z,4.33
2019-01-26T21:52:04.760Z,4.32
2019-01-26T21:54:36.655Z,4.32
2019-01-26T21:57:08.303Z,4.31
2019-01-26T21:59:40.048Z,4.33
2019-01-26T22:02:11.790Z,4.33
2019-01-26T22:04:43.446Z,4.33
2019-01-26T22:07:15.482Z,4.33
2019-01-26T22:09:47.166Z,4.34
2019-01-26T22:12:18.908Z,4.35
2019-01-26T22:14:50.571Z,4.35
2019-01-26T22:17:22.593Z,4.35
2019-01-26T22:19:54.253Z,4.36
2019-01-26T22:22:25.932Z,4.36
2019-01-26T22:24:59.103Z,4.37
2019-01-26T22:27:30.791Z,4.39
2019-01-26T22:30:02.594Z,4.40
2019-01-26T22:32:34.280Z,4.40
2019-01-26T22:35:06.604Z,4.41
2019-01-26T22:37:38.349Z,4.43
2019-01-26T22:40:20.372Z,4.44
2019-01-26T22:42:52.172Z,4.44
2019-01-26T22:45:23.958Z,4.43
2019-01-26T22:47:55.668Z,4.44
2019-01-26T22:50:30.484Z,4.45
2019-01-26T22:53:03.125Z,4.44
2019-01-26T22:55:34.780Z,4.46
2019-01-26T22:58:08.287Z,4.48
2019-01-26T23:01:03.654Z,4.49
2019-01-26T23:03:45.794Z,4.50
2019-01-26T23:06:49.372Z,4.48
2019-01-26T23:09:28.938Z,4.46
2019-01-26T23:12:18.283Z,4.45
2019-01-26T23:15:17.253Z,4.45
2019-01-26T23:18:31.266Z,4.44
2019-01-26T23:21:19.544Z,4.44
2019-01-26T23:24:01.593Z,4.44
2019-01-26T23:27:08.990Z,4.45
2019-01-26T23:29:58.235Z,4.46
2019-01-26T23:32:30.094Z,4.46
2019-01-26T23:35:01.833Z,4.48
2019-01-26T23:37:33.916Z,4.50
2019-01-26T23:40:10.533Z,4.53
2019-01-26T23:42:42.593Z,4.55
2019-01-26T23:45:14.330Z,4.55
2019-01-26T23:47:46.018Z,4.56
2019-01-26T23:50:17.685Z,4.56
2019-01-26T23:52:49.695Z,4.57
2019-01-26T23:55:21.433Z,4.58
2019-01-26T23:57:53.106Z,4.60
